Terminal Aerodrome Forecast
Issued by NWS Wilmington, NC

Home | Current Version | Previous Version | Text Only | Print | Product List | Glossary On
Versions: 1 2 3 4 5 6 7 8 9 10 11 12 13 14 15 16 17 18 19 20 21 22 23 24
000
FTUS42 KILM 271250 AAA
TAFLBT
TAF AMD
KLBT 271250Z 2713/2812 17005KT P6SM SCT003 BKN250
     FM271600 17008KT P6SM VCSH BKN035
     FM280000 14006KT P6SM VCSH BKN030
      TEMPO 2805/2809 3SM SHRA OVC010
     FM280900 13006KT 3SM SHRA OVC006=

USA.gov is the U.S. government's official web portal to all federal, state and local government web resources and services.